createdAt,value
2024-03-03T00:02:19.464Z,100638.34
2024-03-03T00:05:22.275Z,100632.16
2024-03-03T00:08:25.595Z,100638.34
2024-03-03T00:11:29.021Z,100632.16
2024-03-03T00:14:33.174Z,100626.81
2024-03-03T00:17:35.978Z,100629.56
2024-03-03T00:20:38.852Z,100625.13
2024-03-03T00:23:41.704Z,100629.56
2024-03-03T00:26:44.672Z,100621.59
2024-03-03T00:29:48.841Z,100616.34
2024-03-03T00:32:51.624Z,100609.28
2024-03-03T00:35:54.430Z,100621.75
2024-03-03T00:38:57.237Z,100621.81
2024-03-03T00:42:00.043Z,100606.81
2024-03-03T00:45:04.588Z,100613.03
2024-03-03T00:48:08.362Z,100612.25
2024-03-03T00:51:11.204Z,100613.22
2024-03-03T00:54:14.019Z,100607.94
2024-03-03T00:57:16.980Z,100615.94
2024-03-03T01:00:21.391Z,100608.91
2024-03-03T01:03:24.191Z,100611.56
2024-03-03T01:06:26.974Z,100605.38
2024-03-03T01:09:30.341Z,100607.16
2024-03-03T01:12:33.194Z,100606.25
2024-03-03T01:15:37.454Z,100612.50
2024-03-03T01:18:40.356Z,100601.84
2024-03-03T01:21:43.418Z,100594.81
2024-03-03T01:24:46.205Z,100602.03
2024-03-03T01:27:49.028Z,100602.94
2024-03-03T01:30:53.166Z,100602.09
2024-03-03T01:33:56.050Z,100605.59
2024-03-03T01:36:58.902Z,100598.56
2024-03-03T01:40:01.814Z,100603.91
2024-03-03T01:43:05.584Z,100603.91
2024-03-03T01:46:11.450Z,100595.81
2024-03-03T01:49:16.478Z,100597.63
2024-03-03T01:52:19.667Z,100591.38
2024-03-03T01:55:24.596Z,100587.75
2024-03-03T01:58:29.266Z,100589.59
2024-03-03T02:01:33.950Z,100589.50
2024-03-03T02:04:37.899Z,100585.03
2024-03-03T02:07:41.111Z,100577.91
2024-03-03T02:10:44.352Z,100575.22
2024-03-03T02:13:47.237Z,100573.53
2024-03-03T02:16:52.305Z,100573.53
2024-03-03T02:19:55.486Z,100579.72
2024-03-03T02:22:59.622Z,100573.53
2024-03-03T02:26:02.625Z,100577.13
2024-03-03T02:29:06.404Z,100577.13
2024-03-03T02:32:09.215Z,100575.41
2024-03-03T02:35:11.999Z,100577.19
2024-03-03T02:38:16.163Z,100573.66
2024-03-03T02:41:19.180Z,100579.00
2024-03-03T02:44:23.678Z,100573.66
2024-03-03T02:47:26.494Z,100577.28
2024-03-03T02:50:29.259Z,100575.56
2024-03-03T02:53:33.387Z,100571.97
2024-03-03T02:56:36.149Z,100577.28
2024-03-03T02:59:38.981Z,100579.00
2024-03-03T03:02:41.852Z,100571.00
2024-03-03T03:05:44.619Z,100570.09
2024-03-03T03:08:48.747Z,100569.22
2024-03-03T03:11:51.702Z,100573.63
2024-03-03T03:14:54.640Z,100574.53
2024-03-03T03:17:57.459Z,100574.53
2024-03-03T03:21:00.600Z,100571.78
2024-03-03T03:24:05.158Z,100561.16
2024-03-03T03:27:07.949Z,100575.22
2024-03-03T03:30:12.219Z,100568.03
2024-03-03T03:33:16.245Z,100566.16
2024-03-03T03:36:20.081Z,100563.34
2024-03-03T03:39:24.702Z,100557.00
2024-03-03T03:42:27.515Z,100551.59
2024-03-03T03:45:30.294Z,100553.34
2024-03-03T03:48:33.126Z,100548.84
2024-03-03T03:51:35.975Z,100551.47
2024-03-03T03:54:40.177Z,100546.13
2024-03-03T03:57:42.986Z,100546.03
2024-03-03T04:00:45.933Z,100549.50
2024-03-03T04:03:49.085Z,100542.38
2024-03-03T04:06:51.967Z,100543.25
2024-03-03T04:09:56.141Z,100544.06
2024-03-03T04:12:58.917Z,100544.06
2024-03-03T04:16:01.759Z,100543.16
2024-03-03T04:19:04.734Z,100548.38
2024-03-03T04:22:07.674Z,100547.50
2024-03-03T04:25:12.125Z,100547.50
2024-03-03T04:28:15.091Z,100544.84
2024-03-03T04:31:17.958Z,100545.72
2024-03-03T04:34:20.822Z,100548.38
2024-03-03T04:37:23.735Z,100543.16
2024-03-03T04:40:27.961Z,100541.34
2024-03-03T04:43:30.794Z,100536.97
2024-03-03T04:46:33.615Z,100538.75
2024-03-03T04:49:36.407Z,100535.31
2024-03-03T04:52:39.848Z,100540.63
2024-03-03T04:55:44.057Z,100547.84
2024-03-03T04:58:46.892Z,100539.84
2024-03-03T05:01:50.004Z,100546.13
2024-03-03T05:04:52.915Z,100544.41
2024-03-03T05:07:55.716Z,100546.28
2024-03-03T05:10:59.957Z,100541.91
2024-03-03T05:14:02.890Z,100549.91
2024-03-03T05:17:06.113Z,100542.84
2024-03-03T05:20:10.109Z,100546.38
2024-03-03T05:23:12.912Z,100550.81
2024-03-03T05:26:18.678Z,100547.28
2024-03-03T05:29:21.505Z,100546.47
2024-03-03T05:32:24.510Z,100552.63
2024-03-03T05:35:27.337Z,100551.78
2024-03-03T05:38:30.110Z,100556.31
2024-03-03T05:41:34.261Z,100559.81
2024-03-03T05:44:37.049Z,100555.38
2024-03-03T05:47:40.049Z,100551.00
2024-03-03T05:50:43.052Z,100554.59
2024-03-03T05:53:46.542Z,100559.91
2024-03-03T05:56:51.025Z,100563.44
2024-03-03T05:59:53.923Z,100565.22
2024-03-03T06:02:56.696Z,100564.31
2024-03-03T06:05:59.463Z,100561.66
2024-03-03T06:09:02.245Z,100553.66
2024-03-03T06:12:06.928Z,100549.19
2024-03-03T06:15:10.463Z,100550.03
2024-03-03T06:18:13.340Z,100558.03
2024-03-03T06:21:16.114Z,100558.03
2024-03-03T06:24:19.090Z,100562.44
2024-03-03T06:27:23.262Z,100566.00
2024-03-03T06:30:26.395Z,100574.00
2024-03-03T06:33:29.253Z,100571.34
2024-03-03T06:36:32.144Z,100578.44
2024-03-03T06:39:34.943Z,100579.31
2024-03-03T06:42:40.641Z,100582.84
2024-03-03T06:45:44.613Z,100581.06
2024-03-03T06:48:47.450Z,100585.41
2024-03-03T06:51:50.335Z,100580.09
2024-03-03T06:54:53.148Z,100580.97
2024-03-03T06:57:57.626Z,100592.47
2024-03-03T07:01:00.660Z,100590.75
2024-03-03T07:04:20.236Z,100582.69
2024-03-03T07:07:23.800Z,100580.97
2024-03-03T07:10:26.889Z,100589.03
2024-03-03T07:13:31.013Z,100587.22
2024-03-03T07:16:33.941Z,100587.22
2024-03-03T07:19:36.924Z,100590.84
2024-03-03T07:22:39.766Z,100593.41
2024-03-03T07:25:42.595Z,100589.88
2024-03-03T07:28:46.733Z,100587.16
2024-03-03T07:31:49.495Z,100597.81
2024-03-03T07:34:52.420Z,100605.72
2024-03-03T07:37:55.256Z,100601.25
2024-03-03T07:40:58.410Z,100606.56
2024-03-03T07:44:04.924Z,100600.38
2024-03-03T07:47:07.987Z,100608.44
2024-03-03T07:50:11.126Z,100610.16
2024-03-03T07:53:14.063Z,100607.59
2024-03-03T07:56:17.021Z,100604.91
2024-03-03T07:59:21.148Z,100606.72
2024-03-03T08:02:23.905Z,100608.44
2024-03-03T08:05:26.753Z,100612.03
2024-03-03T08:08:29.559Z,100613.78
2024-03-03T08:11:33.478Z,100617.34
2024-03-03T08:14:37.652Z,100622.69
2024-03-03T08:17:41.182Z,100622.69
2024-03-03T08:20:44.043Z,100612.03
2024-03-03T08:23:46.834Z,100613.81
2024-03-03T08:26:50.172Z,100613.78
2024-03-03T08:29:54.352Z,100603.13
2024-03-03T08:32:57.255Z,100601.38
2024-03-03T08:36:00.549Z,100597.84
2024-03-03T08:39:04.218Z,100591.69
2024-03-03T08:42:07.070Z,100593.50
2024-03-03T08:45:14.222Z,100591.69
2024-03-03T08:48:16.999Z,100589.03
2024-03-03T08:51:19.763Z,100592.63
2024-03-03T08:54:22.565Z,100590.84
2024-03-03T08:57:25.759Z,100591.69
2024-03-03T09:00:29.870Z,100576.66
2024-03-03T09:03:32.852Z,100572.19
2024-03-03T09:06:35.642Z,100574.78
2024-03-03T09:09:41.665Z,100566.72
2024-03-03T09:12:46.319Z,100562.34
2024-03-03T09:15:50.628Z,100556.16
2024-03-03T09:18:55.187Z,100549.91
2024-03-03T09:21:58.176Z,100548.16
2024-03-03T09:25:01.056Z,100560.53
2024-03-03T09:28:04.073Z,100558.81
2024-03-03T09:31:08.378Z,100548.16
2024-03-03T09:34:11.220Z,100553.50
2024-03-03T09:37:14.384Z,100542.84
2024-03-03T09:40:17.746Z,100557.94
2024-03-03T09:43:24.819Z,100549.91
2024-03-03T09:46:31.319Z,100544.56
2024-03-03T09:49:35.263Z,100553.41
2024-03-03T09:52:39.702Z,100552.47
2024-03-03T09:55:43.315Z,100551.50
2024-03-03T09:58:46.201Z,100546.13
2024-03-03T10:01:52.837Z,100550.50
2024-03-03T10:04:59.254Z,100558.47
2024-03-03T10:08:03.066Z,100547.84
2024-03-03T10:11:10.619Z,100534.53
2024-03-03T10:14:14.199Z,100535.41
2024-03-03T10:17:18.534Z,100535.31
2024-03-03T10:20:21.350Z,100527.31
2024-03-03T10:23:25.462Z,100519.34
2024-03-03T10:26:36.709Z,100522.78
2024-03-03T10:29:41.697Z,100526.41
2024-03-03T10:32:47.462Z,100514.78
2024-03-03T10:36:06.810Z,100519.19
2024-03-03T10:39:10.495Z,100513.00
2024-03-03T10:42:13.328Z,100507.69
2024-03-03T10:45:16.476Z,100513.00
2024-03-03T10:48:20.689Z,100513.00
2024-03-03T10:51:24.419Z,100502.53
2024-03-03T10:54:27.899Z,100508.88
2024-03-03T10:57:31.395Z,100508.78
2024-03-03T11:00:37.147Z,100512.72
2024-03-03T11:03:44.238Z,100509.34
2024-03-03T11:06:47.092Z,100507.47
2024-03-03T11:09:51.155Z,100507.94
2024-03-03T11:12:57.271Z,100511.88
2024-03-03T11:16:04.593Z,100515.78
2024-03-03T11:19:13.358Z,100513.34
2024-03-03T11:22:23.133Z,100505.75
2024-03-03T11:25:29.432Z,100503.47
2024-03-03T11:28:35.373Z,100504.00
2024-03-03T11:31:39.929Z,100510.00
2024-03-03T11:34:46.260Z,100492.97
2024-03-03T11:37:49.902Z,100490.25
2024-03-03T11:40:53.483Z,100483.03
2024-03-03T11:43:56.297Z,100474.09
2024-03-03T11:46:59.356Z,100475.81
2024-03-03T11:50:19.108Z,100478.41
2024-03-03T11:53:23.335Z,100470.50
2024-03-03T11:56:29.308Z,100466.88
2024-03-03T11:59:33.925Z,100458.88
2024-03-03T12:02:39.511Z,100452.63
2024-03-03T12:05:43.837Z,100455.38
2024-03-03T12:08:54.959Z,100450.91
2024-03-03T12:11:58.059Z,100453.66
2024-03-03T12:15:01.747Z,100448.34
2024-03-03T12:18:11.116Z,100452.78
2024-03-03T12:21:16.282Z,100446.59
2024-03-03T12:24:19.055Z,100447.66
2024-03-03T12:27:22.287Z,100445.91
2024-03-03T12:30:36.651Z,100444.22
2024-03-03T12:33:41.471Z,100436.28
2024-03-03T12:36:46.381Z,100440.78
2024-03-03T12:39:49.282Z,100431.06
2024-03-03T12:42:52.705Z,100430.13
2024-03-03T12:45:55.996Z,100430.97
2024-03-03T12:48:58.857Z,100431.81
2024-03-03T12:52:03.425Z,100427.38
2024-03-03T12:55:07.854Z,100430.03
2024-03-03T12:58:10.770Z,100440.59
2024-03-03T13:01:14.416Z,100440.59
2024-03-03T13:04:17.296Z,100437.94
2024-03-03T13:07:22.595Z,100431.66
2024-03-03T13:10:26.727Z,100431.66
2024-03-03T13:13:29.610Z,100436.13
2024-03-03T13:16:34.305Z,100432.59
2024-03-03T13:19:45.007Z,100432.59
2024-03-03T13:22:49.469Z,100420.16
2024-03-03T13:25:53.421Z,100431.66
2024-03-03T13:28:56.583Z,100429.00
2024-03-03T13:31:59.369Z,100428.16
2024-03-03T13:35:02.162Z,100428.06
2024-03-03T13:38:06.631Z,100433.28
2024-03-03T13:41:09.453Z,100429.84
2024-03-03T13:44:12.502Z,100433.38
2024-03-03T13:47:15.814Z,100429.94
2024-03-03T13:50:18.711Z,100437.00
2024-03-03T13:53:23.748Z,100432.59
2024-03-03T13:56:26.958Z,100429.00
2024-03-03T13:59:29.960Z,100427.19
2024-03-03T14:02:32.811Z,100435.13
2024-03-03T14:05:35.776Z,100432.44
2024-03-03T14:08:40.450Z,100420.84
2024-03-03T14:11:43.701Z,100430.63
2024-03-03T14:14:46.598Z,100431.50
2024-03-03T14:17:50.284Z,100431.50
2024-03-03T14:20:53.202Z,100435.94
2024-03-03T14:23:57.724Z,100435.94
2024-03-03T14:27:00.527Z,100448.41
2024-03-03T14:30:03.710Z,100444.03
2024-03-03T14:33:07.121Z,100445.91
2024-03-03T14:36:10.581Z,100448.56
2024-03-03T14:39:14.716Z,100454.84
2024-03-03T14:42:19.116Z,100454.00
2024-03-03T14:45:22.230Z,100450.47
2024-03-03T14:48:25.154Z,100458.44
2024-03-03T14:51:28.483Z,100463.91
2024-03-03T14:54:32.647Z,100463.91
2024-03-03T14:57:36.489Z,100459.53
2024-03-03T15:00:40.239Z,100466.63
2024-03-03T15:03:42.976Z,100471.09
2024-03-03T15:06:46.158Z,100471.97
2024-03-03T15:09:50.387Z,100472.06
2024-03-03T15:12:53.559Z,100469.41
2024-03-03T15:15:56.413Z,100470.31
2024-03-03T15:18:59.309Z,100474.72
2024-03-03T15:22:02.098Z,100467.66
2024-03-03T15:25:08.165Z,100463.28
2024-03-03T15:28:11.639Z,100469.50
2024-03-03T15:31:14.463Z,100462.44
2024-03-03T15:34:17.252Z,100458.06
2024-03-03T15:37:21.096Z,100458.91
2024-03-03T15:40:26.192Z,100457.19
2024-03-03T15:43:29.024Z,100460.72
2024-03-03T15:46:31.853Z,100449.22
2024-03-03T15:49:35.181Z,100447.41
2024-03-03T15:52:38.699Z,100448.25
2024-03-03T15:55:42.933Z,100443.78
2024-03-03T15:58:45.880Z,100442.94
2024-03-03T16:01:50.462Z,100450.00
2024-03-03T16:04:53.321Z,100450.91
2024-03-03T16:07:56.302Z,100451.88
2024-03-03T16:11:00.499Z,100460.63
2024-03-03T16:14:03.536Z,100450.91
2024-03-03T16:17:06.950Z,100451.88
2024-03-03T16:20:10.629Z,100457.19
2024-03-03T16:23:14.955Z,100468.72
2024-03-03T16:26:19.451Z,100466.88
2024-03-03T16:29:22.589Z,100454.44
2024-03-03T16:32:25.601Z,100466.81
2024-03-03T16:35:28.380Z,100469.50
2024-03-03T16:38:31.163Z,100469.41
2024-03-03T16:41:35.761Z,100467.66
2024-03-03T16:44:40.628Z,100468.44
2024-03-03T16:47:43.425Z,100463.19
2024-03-03T16:50:46.229Z,100471.19
2024-03-03T16:53:48.993Z,100475.59
2024-03-03T16:56:53.611Z,100477.38
2024-03-03T16:59:56.434Z,100475.66
2024-03-03T17:02:59.326Z,100480.03
2024-03-03T17:06:02.503Z,100481.84
2024-03-03T17:09:05.820Z,100484.50
2024-03-03T17:12:10.202Z,100485.38
2024-03-03T17:15:13.086Z,100480.03
2024-03-03T17:18:16.042Z,100481.75
2024-03-03T17:21:18.822Z,100482.72
2024-03-03T17:24:21.627Z,100489.72
2024-03-03T17:27:25.758Z,100493.25
2024-03-03T17:30:28.565Z,100496.00
2024-03-03T17:33:31.405Z,100498.69
2024-03-03T17:36:34.892Z,100501.34
2024-03-03T17:39:37.753Z,100495.16
2024-03-03T17:42:42.075Z,100496.94
2024-03-03T17:45:44.982Z,100497.03
2024-03-03T17:48:47.858Z,100496.09
2024-03-03T17:51:50.779Z,100495.25
2024-03-03T17:54:53.638Z,100493.50
2024-03-03T17:57:57.806Z,100497.03
2024-03-03T18:01:01.559Z,100501.47
2024-03-03T18:04:05.164Z,100501.47
2024-03-03T18:07:08.432Z,100498.81
2024-03-03T18:10:12.034Z,100509.47
2024-03-03T18:13:16.600Z,100506.81
2024-03-03T18:16:19.858Z,100505.97
2024-03-03T18:19:22.711Z,100499.78
2024-03-03T18:22:26.077Z,100502.44
2024-03-03T18:25:29.721Z,100506.91
2024-03-03T18:28:34.090Z,100504.25
2024-03-03T18:31:36.994Z,100510.44
2024-03-03T18:34:39.842Z,100512.22
2024-03-03T18:37:42.915Z,100513.19
2024-03-03T18:40:45.931Z,100507.00
2024-03-03T18:43:50.222Z,100514.03
2024-03-03T18:46:53.220Z,100509.66
2024-03-03T18:49:58.480Z,100516.69
2024-03-03T18:53:01.273Z,100518.50
2024-03-03T18:56:05.273Z,100516.63
2024-03-03T18:59:10.299Z,100520.13
2024-03-03T19:02:13.565Z,100516.53
2024-03-03T19:05:16.392Z,100521.84
2024-03-03T19:08:19.227Z,100519.19
2024-03-03T19:11:22.443Z,100519.19
2024-03-03T19:14:26.784Z,100520.06
2024-03-03T19:17:29.700Z,100519.97
2024-03-03T19:20:32.785Z,100517.31
2024-03-03T19:23:35.630Z,100519.88
2024-03-03T19:26:38.648Z,100520.75
2024-03-03T19:29:43.393Z,100522.50
2024-03-03T19:32:47.215Z,100517.16
2024-03-03T19:35:50.048Z,100517.97
2024-03-03T19:38:52.853Z,100512.56
2024-03-03T19:41:56.129Z,100516.16
2024-03-03T19:45:00.354Z,100517.00
2024-03-03T19:48:03.562Z,100518.81
2024-03-03T19:51:06.814Z,100514.44
2024-03-03T19:54:09.642Z,100510.81
2024-03-03T19:57:13.750Z,100520.63
2024-03-03T20:00:18.559Z,100518.00
2024-03-03T20:03:22.161Z,100518.91
2024-03-03T20:06:25.377Z,100524.22
2024-03-03T20:09:28.169Z,100522.50
2024-03-03T20:12:31.141Z,100521.56
2024-03-03T20:15:35.302Z,100518.00
2024-03-03T20:18:40.850Z,100515.34
2024-03-03T20:21:44.142Z,100518.91
2024-03-03T20:24:48.006Z,100520.63
2024-03-03T20:27:50.856Z,100520.63
2024-03-03T20:30:55.057Z,100509.13
2024-03-03T20:33:58.471Z,100513.56
2024-03-03T20:37:01.329Z,100512.66
2024-03-03T20:40:06.548Z,100515.44
2024-03-03T20:43:09.510Z,100514.56
2024-03-03T20:46:13.672Z,100519.00
2024-03-03T20:49:18.765Z,100523.41
2024-03-03T20:52:21.703Z,100528.81
2024-03-03T20:55:24.565Z,100530.53
2024-03-03T20:58:27.462Z,100534.97
2024-03-03T21:01:33.315Z,100537.59
2024-03-03T21:04:37.826Z,100523.31
2024-03-03T21:07:40.874Z,100534.88
2024-03-03T21:10:43.860Z,100533.94
2024-03-03T21:13:46.779Z,100541.94
2024-03-03T21:16:51.041Z,100542.78
2024-03-03T21:19:53.922Z,100538.41
2024-03-03T21:22:56.728Z,100535.75
2024-03-03T21:26:01.415Z,100536.59
2024-03-03T21:29:05.007Z,100525.97
2024-03-03T21:32:09.318Z,100528.66
2024-03-03T21:35:12.119Z,100538.41
2024-03-03T21:38:15.127Z,100538.47
2024-03-03T21:41:18.087Z,100540.19
2024-03-03T21:44:20.891Z,100543.72
2024-03-03T21:47:26.181Z,100536.59
2024-03-03T21:50:28.999Z,100542.78
2024-03-03T21:53:31.974Z,100543.63
2024-03-03T21:56:34.742Z,100543.63
2024-03-03T21:59:37.591Z,100543.63
2024-03-03T22:02:41.939Z,100544.50
2024-03-03T22:05:44.801Z,100558.69
2024-03-03T22:08:47.902Z,100556.03
2024-03-03T22:11:51.621Z,100555.16
2024-03-03T22:14:54.478Z,100556.03
2024-03-03T22:17:58.626Z,100556.03
2024-03-03T22:21:01.400Z,100549.81
2024-03-03T22:24:04.658Z,100562.28
2024-03-03T22:27:08.008Z,100561.41
2024-03-03T22:30:11.877Z,100560.56
2024-03-03T22:33:16.126Z,100563.22
2024-03-03T22:36:18.982Z,100564.16
2024-03-03T22:39:23.159Z,100558.84
2024-03-03T22:42:26.043Z,100567.75
2024-03-03T22:45:28.835Z,100565.09
2024-03-03T22:48:32.951Z,100573.13
2024-03-03T22:51:35.777Z,100572.25
2024-03-03T22:54:38.602Z,100570.56
2024-03-03T22:57:41.481Z,100573.22
2024-03-03T23:00:44.381Z,100574.13
2024-03-03T23:03:48.565Z,100575.09
2024-03-03T23:06:51.433Z,100574.13
2024-03-03T23:09:54.282Z,100572.53
2024-03-03T23:12:57.147Z,100576.03
2024-03-03T23:15:59.968Z,100576.88
2024-03-03T23:19:05.247Z,100576.88
2024-03-03T23:22:08.057Z,100572.44
2024-03-03T23:25:11.090Z,100583.94
2024-03-03T23:28:13.901Z,100583.09
2024-03-03T23:31:16.934Z,100584.88
2024-03-03T23:34:21.185Z,100580.41
2024-03-03T23:37:24.072Z,100585.75
2024-03-03T23:40:27.603Z,100583.94
2024-03-03T23:43:30.618Z,100586.66
2024-03-03T23:46:34.727Z,100585.84
2024-03-03T23:49:39.052Z,100581.34
2024-03-03T23:52:42.766Z,100586.66
2024-03-03T23:55:45.771Z,100589.31
2024-03-03T23:58:48.746Z,100587.53
